Time;durP1;ratioP1;P1;durP2;ratioP2;P2;SDS_P1;SDS_P2;PMS_P1;PMS_P2;Temp;Humidity;BMP_temperature;BMP_pressure;BME280_temperature;BME280_humidity;BME280_pressure;Samples;Min_cycle;Max_cycle;Signal;HPM_P1;HPM_P2
2023/11/01 00:01:31;;;;;;;95.17;86.10;;;12.30;99.90;;;;;;5033392;28;20192;-76
2023/11/01 00:03:57;;;;;;;98.70;89.78;;;12.40;99.90;;;;;;5053158;28;20484;-76
2023/11/01 00:06:23;;;;;;;97.60;88.43;;;12.40;99.90;;;;;;5052831;28;20248;-76
2023/11/01 00:08:48;;;;;;;96.87;87.87;;;12.40;99.90;;;;;;5051175;28;20176;-76
2023/11/01 00:11:14;;;;;;;90.70;81.60;;;12.40;99.90;;;;;;5052440;28;20165;-76
2023/11/01 00:13:40;;;;;;;94.63;85.60;;;12.40;1.00;;;;;;5052408;28;20189;-76
2023/11/01 00:16:06;;;;;;;104.20;94.60;;;12.40;1.00;;;;;;5051139;28;20180;-76
2023/11/01 00:18:32;;;;;;;96.73;87.63;;;12.40;1.00;;;;;;5052177;28;20207;-76
2023/11/01 00:20:57;;;;;;;94.30;85.30;;;12.40;1.00;;;;;;5052381;28;20411;-76
2023/11/01 00:23:23;;;;;;;100.40;90.67;;;12.50;9.10;;;;;;5054964;28;20189;-76
2023/11/01 00:25:49;;;;;;;97.93;87.90;;;12.50;65.80;;;;;;5056160;28;20166;-76
2023/11/01 00:28:14;;;;;;;101.10;92.10;;;12.60;54.00;;;;;;5056091;28;20173;-76
2023/11/01 00:30:40;;;;;;;95.43;86.63;;;12.60;99.90;;;;;;5056085;28;20173;-76
2023/11/01 00:33:05;;;;;;;101.40;92.20;;;12.60;99.90;;;;;;5055703;28;20267;-76
2023/11/01 00:35:31;;;;;;;97.50;88.30;;;12.60;99.90;;;;;;5055736;28;20165;-76
2023/11/01 00:37:57;;;;;;;98.50;89.30;;;12.60;99.90;;;;;;5055597;28;20185;-76
2023/11/01 00:40:22;;;;;;;101.67;92.37;;;12.60;99.90;;;;;;5055596;28;20227;-76
2023/11/01 00:42:48;;;;;;;111.00;101.37;;;12.60;99.90;;;;;;5055774;28;20189;-76
2023/11/01 00:45:14;;;;;;;118.50;108.00;;;12.50;1.00;;;;;;5055826;28;20165;-76
2023/11/01 00:47:40;;;;;;;125.17;114.70;;;12.50;1.00;;;;;;5056022;28;20244;-76
2023/11/01 00:50:06;;;;;;;137.33;126.30;;;12.50;21.80;;;;;;5054133;28;20939;-76
2023/11/01 00:52:34;;;;;;;129.50;118.75;;;12.40;99.90;;;;;;5055596;28;20165;-76
2023/11/01 00:55:00;;;;;;;146.50;134.98;;;12.40;99.90;;;;;;5055348;28;20165;-76
2023/11/01 00:57:26;;;;;;;134.30;123.20;;;12.40;99.90;;;;;;5055485;28;20169;-76
2023/11/01 00:59:52;;;;;;;123.63;113.60;;;12.40;99.90;;;;;;5055282;28;20158;-76
2023/11/01 01:02:18;;;;;;;113.03;103.25;;;12.40;99.90;;;;;;5055131;28;20530;-76
2023/11/01 01:04:45;;;;;;;136.47;125.60;;;12.40;99.90;;;;;;5055112;28;20288;-76
2023/11/01 01:07:12;;;;;;;116.65;106.70;;;12.30;99.90;;;;;;5055372;28;20169;-76
2023/11/01 01:09:37;;;;;;;120.70;110.72;;;12.30;99.90;;;;;;5055603;28;20172;-76
2023/11/01 01:12:04;;;;;;;134.73;124.27;;;12.20;99.90;;;;;;5055076;28;20249;-76
2023/11/01 01:14:29;;;;;;;143.05;132.20;;;12.20;99.90;;;;;;5055011;28;20260;-76
2023/11/01 01:16:55;;;;;;;137.93;127.17;;;12.20;99.90;;;;;;5054943;28;20237;-76
2023/11/01 01:19:22;;;;;;;137.10;126.57;;;12.10;99.90;;;;;;5054717;28;20204;-76
2023/11/01 01:21:48;;;;;;;130.45;119.85;;;12.10;99.90;;;;;;5054809;28;20208;-76
2023/11/01 01:24:13;;;;;;;137.57;127.07;;;12.00;99.90;;;;;;5054795;28;20184;-76
2023/11/01 01:26:40;;;;;;;137.50;126.70;;;12.00;99.90;;;;;;5055272;28;20165;-76
2023/11/01 01:29:06;;;;;;;129.27;118.72;;;12.00;99.90;;;;;;5054636;28;20211;-76
2023/11/01 01:31:33;;;;;;;127.27;117.10;;;12.00;99.90;;;;;;5054968;28;20165;-76
2023/11/01 01:33:59;;;;;;;118.70;108.68;;;12.00;99.90;;;;;;5054041;28;20424;-76
2023/11/01 01:36:26;;;;;;;121.63;111.43;;;12.00;99.90;;;;;;5054828;28;20169;-76
2023/11/01 01:38:52;;;;;;;139.95;128.45;;;12.00;99.90;;;;;;5054413;28;20188;-76
2023/11/01 01:41:17;;;;;;;121.30;111.18;;;12.00;99.90;;;;;;5054416;28;20161;-76
2023/11/01 01:43:43;;;;;;;123.13;112.77;;;12.00;99.90;;;;;;5054356;28;20551;-76
2023/11/01 01:46:13;;;;;;;114.60;104.20;;;11.90;99.90;;;;;;5054397;28;20189;-76
2023/11/01 01:48:40;;;;;;;120.88;110.88;;;11.90;99.90;;;;;;5054596;28;20244;-76
2023/11/01 01:51:07;;;;;;;109.63;99.82;;;11.90;99.90;;;;;;5054534;28;20174;-76
2023/11/01 01:53:37;;;;;;;110.60;100.43;;;11.80;99.90;;;;;;5054279;28;20193;-76
2023/11/01 01:56:04;;;;;;;118.50;108.40;;;11.80;99.90;;;;;;5054324;28;20244;-76
2023/11/01 01:58:35;;;;;;;115.88;106.07;;;11.80;99.90;;;;;;5054065;28;20193;-76
2023/11/01 02:01:01;;;;;;;114.43;104.53;;;11.80;99.90;;;;;;5054106;28;20248;-76
2023/11/01 02:03:27;;;;;;;122.93;111.97;;;11.80;99.90;;;;;;5054092;28;20173;-76
2023/11/01 02:05:53;;;;;;;120.37;110.17;;;11.80;99.90;;;;;;5053996;28;20158;-76
2023/11/01 02:08:20;;;;;;;133.83;123.40;;;11.80;99.90;;;;;;5053999;28;20176;-76
2023/11/01 02:10:46;;;;;;;101.28;91.57;;;11.80;99.90;;;;;;5054194;28;20215;-76
2023/11/01 02:13:15;;;;;;;117.68;107.47;;;11.80;99.90;;;;;;5053740;28;20188;-76
2023/11/01 02:15:43;;;;;;;134.65;123.82;;;11.70;99.90;;;;;;5053814;28;20165;-76
2023/11/01 02:18:09;;;;;;;135.07;123.72;;;11.70;99.90;;;;;;5053595;28;20193;-76
2023/11/01 02:20:39;;;;;;;130.27;119.82;;;11.70;99.90;;;;;;5054027;28;20157;-76
2023/11/01 02:23:12;;;;;;;136.43;125.15;;;11.70;99.90;;;;;;5053598;28;20713;-76
2023/11/01 02:25:38;;;;;;;124.82;114.53;;;11.70;99.90;;;;;;5052424;28;20198;-76
2023/11/01 02:28:06;;;;;;;129.43;118.55;;;11.70;99.90;;;;;;5053664;28;20310;-76
2023/11/01 02:30:32;;;;;;;141.20;130.35;;;11.70;99.90;;;;;;5053689;28;20197;-76
2023/11/01 02:32:57;;;;;;;144.60;133.10;;;11.70;99.90;;;;;;5053786;28;20200;-76
2023/11/01 02:35:23;;;;;;;131.67;120.87;;;11.70;99.90;;;;;;5035666;28;20177;-76
2023/11/01 02:37:49;;;;;;;145.97;135.03;;;11.70;99.90;;;;;;5053402;28;20197;-76
2023/11/01 02:40:16;;;;;;;132.93;122.23;;;11.70;99.90;;;;;;5053987;28;20173;-75
2023/11/01 02:42:47;;;;;;;146.57;135.40;;;11.70;99.90;;;;;;5053249;28;20431;-76
2023/11/01 02:45:13;;;;;;;135.93;125.32;;;11.70;99.90;;;;;;5052994;28;20146;-76
2023/11/01 02:47:42;;;;;;;154.93;143.40;;;11.70;99.90;;;;;;5035384;28;20672;-76
2023/11/01 02:50:13;;;;;;;157.07;145.77;;;11.70;99.90;;;;;;5053274;28;20215;-76
2023/11/01 02:52:39;;;;;;;143.63;132.75;;;11.70;99.90;;;;;;5053468;28;20181;-76
2023/11/01 02:55:09;;;;;;;149.87;138.33;;;11.80;99.90;;;;;;5053207;28;20184;-76
2023/11/01 02:57:35;;;;;;;149.10;138.00;;;11.80;99.90;;;;;;5053011;28;20472;-76
2023/11/01 03:00:06;;;;;;;140.05;129.00;;;11.80;99.90;;;;;;5053433;28;20172;-76
2023/11/01 03:02:40;;;;;;;142.43;131.40;;;11.80;99.90;;;;;;5053288;28;20152;-76
2023/11/01 03:05:06;;;;;;;160.15;148.70;;;11.80;99.90;;;;;;5053103;28;20638;-76
2023/11/01 03:07:32;;;;;;;180.93;167.77;;;11.80;99.90;;;;;;5053297;28;20166;-76
2023/11/01 03:09:58;;;;;;;165.10;153.00;;;11.70;99.90;;;;;;5053278;28;20403;-76
2023/11/01 03:12:23;;;;;;;158.43;147.03;;;11.70;99.90;;;;;;5052887;28;20400;-76
2023/11/01 03:14:49;;;;;;;151.07;139.80;;;11.80;99.90;;;;;;5052865;28;20165;-76
2023/11/01 03:17:15;;;;;;;141.50;130.67;;;11.80;99.90;;;;;;5052800;28;20177;-76
2023/11/01 03:19:41;;;;;;;152.00;140.73;;;11.80;99.90;;;;;;5052712;28;20212;-76
2023/11/01 03:22:07;;;;;;;160.87;148.80;;;11.80;99.90;;;;;;5052851;28;20228;-76
2023/11/01 03:24:32;;;;;;;161.07;149.40;;;11.80;99.90;;;;;;5052720;28;20207;-76
2023/11/01 03:26:59;;;;;;;188.30;175.83;;;11.80;99.90;;;;;;5052794;28;20399;-76
2023/11/01 03:29:25;;;;;;;181.73;169.13;;;11.80;99.90;;;;;;5053093;28;20316;-76
2023/11/01 03:31:51;;;;;;;198.57;185.73;;;11.70;99.90;;;;;;5052850;28;20193;-76
2023/11/01 03:34:16;;;;;;;174.80;162.93;;;11.70;99.90;;;;;;5052628;28;20430;-76
2023/11/01 03:36:42;;;;;;;192.07;179.37;;;11.80;99.90;;;;;;5052726;28;20427;-76
2023/11/01 03:39:09;;;;;;;185.93;173.53;;;11.70;99.90;;;;;;5052914;28;20181;-76
2023/11/01 03:41:39;;;;;;;181.35;169.05;;;11.70;99.90;;;;;;5052703;28;20478;-76
2023/11/01 03:44:06;;;;;;;184.30;171.95;;;11.70;99.90;;;;;;5052700;28;20268;-76
2023/11/01 03:46:32;;;;;;;191.02;178.38;;;11.70;99.90;;;;;;5052679;28;20716;-76
2023/11/01 03:48:57;;;;;;;183.10;170.50;;;11.70;99.90;;;;;;5052638;28;20205;-76
2023/11/01 03:51:23;;;;;;;227.60;213.23;;;11.60;99.90;;;;;;5052651;28;20165;-76
2023/11/01 03:53:49;;;;;;;202.27;188.90;;;11.60;99.90;;;;;;5052717;28;20185;-76
2023/11/01 03:56:14;;;;;;;183.50;170.93;;;11.60;99.90;;;;;;5052944;28;20638;-76
2023/11/01 03:58:40;;;;;;;174.37;162.43;;;11.60;99.90;;;;;;5056357;28;20197;-76
2023/11/01 04:01:06;;;;;;;201.27;187.97;;;11.70;99.90;;;;;;5056341;28;20244;-76
2023/11/01 04:03:31;;;;;;;177.07;164.33;;;11.70;99.90;;;;;;5056273;28;20633;-76
2023/11/01 04:05:58;;;;;;;186.50;174.27;;;11.70;99.90;;;;;;5056326;28;20684;-76
2023/11/01 04:08:23;;;;;;;174.25;162.20;;;11.60;99.90;;;;;;5056492;28;20408;-76
2023/11/01 04:10:49;;;;;;;181.73;169.40;;;11.70;99.90;;;;;;5056165;28;20215;-76
2023/11/01 04:13:15;;;;;;;174.27;162.17;;;11.60;99.90;;;;;;5056075;28;20193;-76
2023/11/01 04:15:41;;;;;;;183.63;171.20;;;11.60;99.90;;;;;;5056124;28;20589;-76
2023/11/01 04:18:07;;;;;;;184.35;171.55;;;11.60;99.90;;;;;;5055862;28;20629;-76
2023/11/01 04:20:33;;;;;;;169.37;157.53;;;11.70;99.90;;;;;;5056250;28;20201;-76
2023/11/01 04:22:58;;;;;;;152.20;141.03;;;11.70;99.90;;;;;;5055911;28;20185;-76
2023/11/01 04:25:24;;;;;;;160.07;148.63;;;11.80;99.90;;;;;;5056230;28;20158;-75
2023/11/01 04:27:50;;;;;;;157.93;146.50;;;11.80;99.90;;;;;;5056153;28;20181;-76
2023/11/01 04:30:16;;;;;;;175.23;163.32;;;11.70;99.90;;;;;;5055832;28;20252;-76
2023/11/01 04:32:43;;;;;;;156.40;145.10;;;11.80;99.90;;;;;;5055988;28;20220;-76
2023/11/01 04:35:09;;;;;;;153.07;141.73;;;11.80;99.90;;;;;;5056056;28;20292;-75
2023/11/01 04:37:42;;;;;;;157.07;145.73;;;11.70;99.90;;;;;;5055587;28;20180;-76
2023/11/01 04:40:13;;;;;;;164.57;153.05;;;11.70;99.90;;;;;;5055723;28;20248;-76
2023/11/01 04:42:44;;;;;;;152.00;140.73;;;11.80;99.90;;;;;;5055913;28;20181;-76
2023/11/01 04:45:12;;;;;;;160.60;149.15;;;11.70;99.90;;;;;;5055542;28;20165;-76
2023/11/01 04:47:44;;;;;;;181.77;169.35;;;11.70;99.90;;;;;;5056045;28;20248;-76
2023/11/01 04:50:11;;;;;;;154.98;143.57;;;11.70;99.90;;;;;;5056096;28;20659;-76
2023/11/01 04:52:42;;;;;;;156.32;144.68;;;11.80;99.90;;;;;;5055620;28;20231;-76
2023/11/01 04:55:10;;;;;;;156.52;145.20;;;11.80;99.90;;;;;;5055395;28;20149;-76
2023/11/01 04:57:36;;;;;;;198.32;185.18;;;11.70;99.90;;;;;;5055202;28;20164;-76
2023/11/01 05:00:08;;;;;;;151.10;139.83;;;11.70;99.90;;;;;;5055775;28;20157;-76
2023/11/01 05:02:35;;;;;;;155.95;144.63;;;11.70;99.90;;;;;;5055186;28;20392;-76
2023/11/01 05:05:05;;;;;;;168.85;156.88;;;11.70;99.90;;;;;;5055213;28;20165;-76
2023/11/01 05:07:31;;;;;;;152.73;141.38;;;11.70;99.90;;;;;;5055246;28;20236;-76
2023/11/01 05:09:56;;;;;;;144.47;133.57;;;11.70;99.90;;;;;;5054442;28;20254;-76
2023/11/01 05:12:22;;;;;;;169.20;157.00;;;11.70;99.90;;;;;;5055220;28;20497;-76
2023/11/01 05:14:48;;;;;;;154.67;143.43;;;11.80;99.90;;;;;;5055348;28;20239;-76
2023/11/01 05:17:13;;;;;;;162.73;151.00;;;11.80;99.90;;;;;;5055237;28;20161;-76
2023/11/01 05:19:39;;;;;;;144.73;133.83;;;11.70;99.90;;;;;;5054732;28;20197;-76
2023/11/01 05:22:05;;;;;;;160.53;149.13;;;11.70;99.90;;;;;;5054822;28;20161;-76
2023/11/01 05:24:31;;;;;;;153.50;142.15;;;11.70;99.90;;;;;;5054721;28;20192;-76
2023/11/01 05:26:57;;;;;;;143.47;132.17;;;11.60;99.90;;;;;;5054988;28;20169;-76
2023/11/01 05:29:22;;;;;;;155.13;143.83;;;11.60;99.90;;;;;;5053477;28;20182;-75
2023/11/01 05:31:48;;;;;;;158.50;147.13;;;11.60;99.90;;;;;;5055032;28;20251;-75
2023/11/01 05:34:16;;;;;;;155.57;144.37;;;11.60;99.90;;;;;;5054576;28;20199;-76
2023/11/01 05:36:42;;;;;;;156.88;145.30;;;11.60;99.90;;;;;;5054923;28;20204;-76
2023/11/01 05:39:08;;;;;;;157.93;146.43;;;11.60;99.90;;;;;;5053290;28;20627;-75
2023/11/01 05:41:33;;;;;;;170.87;158.80;;;11.60;99.90;;;;;;5054508;28;20204;-76
2023/11/01 05:43:59;;;;;;;171.97;159.80;;;11.60;99.90;;;;;;5054492;28;20454;-76
2023/11/01 05:46:25;;;;;;;147.23;136.17;;;11.60;99.90;;;;;;5054608;28;20308;-76
2023/11/01 05:48:51;;;;;;;140.90;130.05;;;11.60;99.90;;;;;;5054640;28;20407;-75
2023/11/01 05:51:17;;;;;;;158.20;146.43;;;11.60;99.90;;;;;;5054583;28;20530;-76
2023/11/01 05:53:44;;;;;;;159.07;147.17;;;11.60;99.90;;;;;;5054255;28;20265;-76
2023/11/01 05:56:10;;;;;;;156.38;144.75;;;11.60;99.90;;;;;;5052963;28;20556;-76
2023/11/01 05:58:36;;;;;;;178.17;165.57;;;11.70;99.90;;;;;;5054077;28;20192;-76
2023/11/01 06:01:03;;;;;;;138.32;127.45;;;11.60;99.90;;;;;;5053977;28;20197;-76
2023/11/01 06:03:30;;;;;;;145.68;134.73;;;11.70;99.90;;;;;;5054018;28;20552;-76
2023/11/01 06:05:57;;;;;;;154.57;143.10;;;11.70;99.90;;;;;;5054008;28;20157;-76
2023/11/01 06:08:24;;;;;;;139.90;129.20;;;11.70;99.90;;;;;;5053999;28;20164;-76
2023/11/01 06:10:49;;;;;;;143.15;132.40;;;11.70;99.90;;;;;;5054513;28;20642;-76
2023/11/01 06:13:15;;;;;;;140.03;129.20;;;11.70;99.90;;;;;;5053845;28;20196;-76
2023/11/01 06:15:41;;;;;;;138.47;127.83;;;11.70;99.90;;;;;;5053860;28;20407;-76
2023/11/01 06:18:07;;;;;;;144.43;133.67;;;11.70;99.90;;;;;;5053840;28;20234;-76
2023/11/01 06:20:36;;;;;;;133.50;122.97;;;11.70;99.90;;;;;;5054032;28;20173;-76
2023/11/01 06:23:08;;;;;;;154.55;142.68;;;11.70;99.90;;;;;;5053761;28;20774;-76
2023/11/01 06:25:34;;;;;;;135.57;125.03;;;11.70;99.90;;;;;;5053775;28;20142;-76
2023/11/01 06:28:00;;;;;;;132.52;121.90;;;11.70;99.90;;;;;;5053883;28;20532;-76
2023/11/01 06:30:26;;;;;;;141.17;130.47;;;11.70;99.90;;;;;;5053875;28;20165;-76
2023/11/01 06:32:52;;;;;;;146.13;134.77;;;11.60;99.90;;;;;;5053752;28;20259;-76
2023/11/01 06:35:18;;;;;;;146.97;135.97;;;11.60;99.90;;;;;;5053841;28;20165;-76
2023/11/01 06:37:43;;;;;;;139.50;128.93;;;11.60;99.90;;;;;;5053674;28;20769;-76
2023/11/01 06:40:12;;;;;;;145.03;134.03;;;11.60;99.90;;;;;;5053710;28;20161;-76
2023/11/01 06:42:41;;;;;;;161.98;149.85;;;11.60;99.90;;;;;;5053279;28;20235;-76
2023/11/01 06:45:07;;;;;;;150.25;139.15;;;11.60;99.90;;;;;;5053330;28;20681;-76
2023/11/01 06:47:33;;;;;;;143.45;132.38;;;11.70;99.90;;;;;;5053311;28;20180;-76
2023/11/01 06:49:58;;;;;;;143.23;132.43;;;11.70;99.90;;;;;;5053239;28;20165;-76
2023/11/01 06:52:24;;;;;;;149.43;138.33;;;11.70;99.90;;;;;;5053333;28;20694;-76
2023/11/01 06:54:50;;;;;;;149.13;137.60;;;11.70;99.90;;;;;;5051835;28;20169;-76
2023/11/01 06:57:15;;;;;;;151.20;140.03;;;11.80;99.90;;;;;;5053374;28;20530;-76
2023/11/01 06:59:41;;;;;;;142.67;131.93;;;11.80;99.90;;;;;;5053287;28;20188;-76
2023/11/01 07:02:08;;;;;;;141.80;130.90;;;11.80;99.90;;;;;;5053292;28;20269;-76
2023/11/01 07:04:34;;;;;;;128.30;117.93;;;11.90;99.90;;;;;;5035096;28;20193;-76
2023/11/01 07:07:00;;;;;;;146.30;135.23;;;11.90;99.90;;;;;;5053046;28;20163;-76
2023/11/01 07:09:25;;;;;;;145.27;134.17;;;11.90;99.90;;;;;;5053000;28;20407;-76
2023/11/01 07:11:54;;;;;;;128.67;118.23;;;11.90;99.90;;;;;;5053283;28;20410;-76
2023/11/01 07:14:20;;;;;;;136.45;125.25;;;11.90;99.90;;;;;;5052964;28;20775;-75
2023/11/01 07:16:46;;;;;;;143.53;132.53;;;11.90;99.90;;;;;;5052983;28;20172;-76
2023/11/01 07:19:15;;;;;;;151.30;139.38;;;11.90;99.90;;;;;;5051469;28;20704;-76
2023/11/01 07:21:43;;;;;;;156.25;144.10;;;11.90;99.90;;;;;;5053144;28;20215;-76
2023/11/01 07:24:09;;;;;;;135.98;125.32;;;12.00;99.90;;;;;;5053071;28;20176;-76
2023/11/01 07:26:40;;;;;;;131.13;120.73;;;12.00;99.90;;;;;;5052883;28;20592;-76
2023/11/01 07:29:05;;;;;;;128.30;118.03;;;12.00;99.90;;;;;;5052866;28;20283;-76
2023/11/01 07:31:31;;;;;;;138.50;127.80;;;12.00;99.90;;;;;;5054094;28;20165;-76
2023/11/01 07:34:00;;;;;;;139.07;128.37;;;12.10;99.90;;;;;;5056977;28;20675;-76
2023/11/01 07:36:26;;;;;;;128.50;118.07;;;12.10;99.90;;;;;;5056932;28;20180;-76
2023/11/01 07:38:52;;;;;;;133.65;122.38;;;12.10;99.90;;;;;;5057071;28;20223;-76
2023/11/01 07:41:17;;;;;;;126.23;115.90;;;12.10;99.90;;;;;;5055304;28;20260;-76
2023/11/01 07:43:43;;;;;;;120.50;110.40;;;12.10;99.90;;;;;;5056514;28;20192;-76
2023/11/01 07:46:09;;;;;;;115.13;105.13;;;12.20;99.90;;;;;;5056652;28;20161;-76
2023/11/01 07:48:36;;;;;;;129.27;118.57;;;12.20;99.90;;;;;;5056477;28;20438;-76
2023/11/01 07:51:05;;;;;;;115.20;105.03;;;12.30;99.90;;;;;;5056611;28;20885;-76
2023/11/01 07:53:30;;;;;;;116.80;106.53;;;12.30;99.90;;;;;;5056318;28;20203;-76
2023/11/01 07:55:56;;;;;;;113.33;103.63;;;12.30;99.90;;;;;;5056478;28;20252;-76
2023/11/01 07:58:22;;;;;;;114.20;104.50;;;12.40;99.90;;;;;;5056280;28;20185;-76
2023/11/01 08:00:48;;;;;;;119.80;109.90;;;12.40;99.90;;;;;;5056393;28;20384;-76
2023/11/01 08:03:13;;;;;;;105.13;95.43;;;12.50;99.90;;;;;;5056324;28;20193;-76
2023/11/01 08:05:39;;;;;;;104.40;94.57;;;12.50;99.90;;;;;;5055268;28;20200;-76
2023/11/01 08:08:05;;;;;;;88.73;79.73;;;12.50;99.90;;;;;;5056519;28;20169;-76
2023/11/01 08:10:30;;;;;;;99.57;90.13;;;12.60;99.90;;;;;;5056286;28;20196;-76
2023/11/01 08:12:56;;;;;;;92.97;83.63;;;12.60;99.90;;;;;;5038789;28;20434;-76
2023/11/01 08:15:22;;;;;;;113.03;102.63;;;12.70;99.90;;;;;;5056402;28;20162;-76
2023/11/01 08:17:47;;;;;;;96.83;87.37;;;12.70;99.90;;;;;;5056585;28;20177;-76
2023/11/01 08:20:16;;;;;;;96.60;87.27;;;12.70;99.90;;;;;;5056065;28;20146;-76
2023/11/01 08:22:42;;;;;;;104.30;94.70;;;12.70;99.90;;;;;;5055867;28;20554;-76
2023/11/01 08:25:08;;;;;;;109.67;99.97;;;12.70;99.90;;;;;;5055956;28;20454;-76
2023/11/01 08:27:34;;;;;;;101.07;91.07;;;12.70;99.90;;;;;;5055838;28;20210;-76
2023/11/01 08:30:00;;;;;;;105.60;95.80;;;12.80;99.90;;;;;;5055782;28;20761;-76
2023/11/01 08:32:26;;;;;;;103.73;94.20;;;12.80;99.90;;;;;;5055788;28;20161;-76
2023/11/01 08:34:53;;;;;;;98.67;89.27;;;12.90;99.90;;;;;;5056092;28;20168;-76
2023/11/01 08:37:18;;;;;;;98.70;89.13;;;12.90;99.90;;;;;;5055679;28;20158;-76
2023/11/01 08:39:44;;;;;;;90.40;81.50;;;13.00;99.90;;;;;;5055906;28;20196;-76
2023/11/01 08:42:10;;;;;;;89.13;79.97;;;13.10;99.90;;;;;;5055752;28;20172;-76
2023/11/01 08:44:35;;;;;;;85.37;76.77;;;13.20;99.90;;;;;;5054368;28;20650;-76
2023/11/01 08:47:04;;;;;;;90.57;81.47;;;13.30;99.90;;;;;;5055597;28;20166;-76
2023/11/01 08:49:30;;;;;;;84.28;75.10;;;13.30;99.90;;;;;;5055773;28;20192;-76
2023/11/01 08:51:56;;;;;;;90.13;81.13;;;13.30;99.90;;;;;;5056245;28;20173;-76
2023/11/01 08:54:24;;;;;;;97.90;87.83;;;13.30;99.90;;;;;;5055397;28;20443;-76
2023/11/01 08:56:50;;;;;;;96.47;87.30;;;13.30;99.90;;;;;;5055333;28;20447;-76
2023/11/01 08:59:17;;;;;;;99.30;90.00;;;13.40;99.90;;;;;;5054021;28;20798;-76
2023/11/01 09:01:44;;;;;;;103.32;93.53;;;13.50;99.90;;;;;;5055519;28;20485;-76
2023/11/01 09:04:10;;;;;;;115.43;105.87;;;13.50;99.90;;;;;;5055370;28;20186;-76
2023/11/01 09:06:36;;;;;;;105.83;96.27;;;13.60;99.90;;;;;;5055766;28;20150;-76
2023/11/01 09:09:02;;;;;;;114.77;105.17;;;13.60;99.90;;;;;;5055475;28;20396;-76
2023/11/01 09:11:29;;;;;;;114.37;104.00;;;13.50;99.90;;;;;;5055166;28;20412;-76
2023/11/01 09:13:55;;;;;;;121.40;111.33;;;13.50;99.90;;;;;;5054877;28;20514;-76
2023/11/01 09:16:20;;;;;;;118.50;108.43;;;13.50;99.90;;;;;;5054899;28;20443;-76
2023/11/01 09:18:46;;;;;;;143.33;132.33;;;13.40;99.90;;;;;;5054733;28;20211;-76
2023/11/01 09:21:12;;;;;;;139.03;128.60;;;13.50;99.90;;;;;;5055071;28;20244;-76
2023/11/01 09:23:38;;;;;;;184.10;171.10;;;13.50;99.90;;;;;;5054751;28;20228;-76
2023/11/01 09:26:03;;;;;;;153.73;142.73;;;13.60;99.90;;;;;;5053451;28;20173;-76
2023/11/01 09:28:29;;;;;;;159.07;147.70;;;13.60;99.90;;;;;;5053513;28;20650;-76
2023/11/01 09:30:55;;;;;;;159.10;147.43;;;13.60;99.90;;;;;;5053464;28;20165;-76
2023/11/01 09:33:20;;;;;;;156.43;145.17;;;13.60;99.90;;;;;;5054741;28;20535;-76
2023/11/01 09:35:46;;;;;;;156.20;144.90;;;13.50;99.90;;;;;;5054660;28;20697;-76
2023/11/01 09:38:12;;;;;;;142.43;131.67;;;13.50;99.90;;;;;;5054397;28;20621;-76
2023/11/01 09:40:37;;;;;;;150.37;139.33;;;13.50;99.90;;;;;;5054392;28;20160;-76
2023/11/01 09:43:07;;;;;;;157.97;146.37;;;13.50;99.90;;;;;;5054044;28;20212;-76
2023/11/01 09:45:32;;;;;;;139.88;129.50;;;13.50;99.90;;;;;;5053903;28;20165;-76
2023/11/01 09:47:58;;;;;;;152.17;140.70;;;13.50;99.90;;;;;;5053828;28;20169;-76
2023/11/01 09:50:24;;;;;;;147.83;137.03;;;13.60;99.90;;;;;;5053840;28;20259;-75
2023/11/01 09:52:50;;;;;;;147.83;136.53;;;13.60;99.90;;;;;;5053717;28;20443;-76
2023/11/01 09:55:16;;;;;;;147.80;136.90;;;13.60;99.90;;;;;;5053726;28;20172;-76
2023/11/01 09:57:48;;;;;;;141.57;130.80;;;13.70;99.90;;;;;;5053969;28;20169;-76
2023/11/01 10:00:15;;;;;;;153.93;142.73;;;13.80;99.90;;;;;;5053108;28;20230;-76
2023/11/01 10:02:41;;;;;;;145.50;134.73;;;13.80;99.90;;;;;;5036154;28;20542;-76
2023/11/01 10:05:07;;;;;;;152.40;140.53;;;13.90;99.90;;;;;;5054102;28;20395;-76
2023/11/01 10:07:33;;;;;;;144.83;133.87;;;13.90;99.90;;;;;;5053555;28;20412;-76
2023/11/01 10:10:00;;;;;;;138.27;127.57;;;13.90;99.90;;;;;;5054160;28;20165;-76
2023/11/01 10:12:26;;;;;;;111.37;101.87;;;14.00;99.90;;;;;;5053840;28;20174;-76
2023/11/01 10:14:52;;;;;;;112.97;103.47;;;14.00;99.90;;;;;;5053924;28;20407;-76
2023/11/01 10:17:17;;;;;;;113.93;104.33;;;14.00;99.90;;;;;;5053873;28;20177;-76
2023/11/01 10:19:43;;;;;;;104.63;95.13;;;13.90;99.90;;;;;;5054238;28;20256;-76
2023/11/01 10:22:12;;;;;;;96.97;88.03;;;14.00;99.90;;;;;;5054041;28;20215;-76
2023/11/01 10:24:41;;;;;;;99.07;90.00;;;14.00;99.90;;;;;;5052331;28;20216;-76
2023/11/01 10:27:06;;;;;;;96.33;87.70;;;14.10;99.90;;;;;;5053561;28;20491;-76
2023/11/01 10:29:42;;;;;;;96.90;87.73;;;14.10;99.90;;;;;;5052365;28;20494;-76
2023/11/01 10:32:10;;;;;;;95.37;86.40;;;14.20;99.90;;;;;;5053578;28;20236;-76
2023/11/01 10:34:36;;;;;;;93.33;84.43;;;14.20;99.90;;;;;;5053537;28;21012;-76
2023/11/01 10:37:08;;;;;;;89.97;81.40;;;14.10;99.90;;;;;;5053524;28;20499;-76
2023/11/01 10:39:37;;;;;;;96.53;87.63;;;14.10;99.90;;;;;;5053636;28;20431;-76
2023/11/01 10:42:04;;;;;;;94.97;86.17;;;14.00;99.90;;;;;;5053407;28;20404;-76
2023/11/01 10:44:30;;;;;;;100.70;91.67;;;14.00;99.90;;;;;;5053344;28;20504;-76
2023/11/01 10:46:57;;;;;;;98.63;89.30;;;14.10;99.90;;;;;;5053225;28;20400;-76
2023/11/01 10:49:24;;;;;;;93.10;84.50;;;14.10;99.90;;;;;;5053278;28;20971;-76
2023/11/01 10:51:52;;;;;;;98.80;89.73;;;14.20;99.90;;;;;;5053263;28;20391;-76
2023/11/01 10:54:18;;;;;;;96.07;87.20;;;14.20;99.90;;;;;;5053146;28;20503;-76
2023/11/01 10:56:46;;;;;;;114.97;104.53;;;14.30;99.90;;;;;;5053185;28;20490;-76
2023/11/01 10:59:30;;;;;;;93.73;84.63;;;14.40;99.90;;;;;;5053041;28;20443;-76
2023/11/01 11:02:10;;;;;;;95.73;86.63;;;14.30;99.90;;;;;;5053519;28;20796;-76
2023/11/01 11:04:43;;;;;;;108.07;98.53;;;14.40;99.90;;;;;;5053050;28;20420;-75
2023/11/01 11:07:35;;;;;;;118.80;109.40;;;14.50;99.90;;;;;;5052680;28;20376;-76
2023/11/01 11:10:20;;;;;;;100.60;91.20;;;14.70;99.90;;;;;;5046023;28;20418;-76
2023/11/01 11:13:09;;;;;;;103.70;94.40;;;14.80;99.90;;;;;;5052931;28;20419;-76
2023/11/01 11:15:47;;;;;;;113.60;104.23;;;14.70;99.90;;;;;;5052906;28;20392;-76
2023/11/01 11:18:21;;;;;;;115.93;106.33;;;14.70;99.90;;;;;;5052753;28;20450;-76
2023/11/01 11:20:50;;;;;;;91.87;83.33;;;14.50;99.90;;;;;;5052945;28;20463;-76
2023/11/01 11:23:17;;;;;;;95.97;86.97;;;14.50;99.90;;;;;;5052841;28;20540;-76
2023/11/01 11:25:50;;;;;;;101.80;92.60;;;14.50;99.90;;;;;;5052832;28;20404;-76
2023/11/01 11:28:18;;;;;;;104.10;95.10;;;14.50;99.90;;;;;;5052906;28;20381;-76
2023/11/01 11:30:44;;;;;;;94.23;85.70;;;14.50;99.90;;;;;;5052874;28;20458;-76
2023/11/01 11:33:13;;;;;;;94.13;85.10;;;14.50;99.90;;;;;;5051517;28;20956;-76
2023/11/01 11:35:40;;;;;;;91.97;83.33;;;14.50;99.90;;;;;;5052887;28;20165;-76
2023/11/01 11:38:32;;;;;;;85.73;77.20;;;14.50;99.90;;;;;;5053216;28;20447;-76
2023/11/01 11:41:17;;;;;;;83.37;75.30;;;14.50;99.90;;;;;;5034950;28;20396;-76
2023/11/01 11:44:00;;;;;;;74.37;66.30;;;14.50;99.90;;;;;;5052927;28;20416;-76
2023/11/01 11:46:31;;;;;;;78.33;70.20;;;14.60;99.90;;;;;;5052924;28;20396;-76
2023/11/01 11:49:00;;;;;;;66.83;55.93;;;14.60;99.90;;;;;;5052722;28;20836;-76
2023/11/01 11:51:29;;;;;;;67.87;58.33;;;14.50;99.90;;;;;;5052634;28;20818;-76
2023/11/01 11:53:55;;;;;;;69.37;52.00;;;14.50;99.90;;;;;;5052871;28;20933;-76
2023/11/01 11:56:20;;;;;;;64.30;49.87;;;14.50;99.90;;;;;;5053144;28;20486;-76
2023/11/01 11:58:46;;;;;;;62.73;44.13;;;14.60;99.90;;;;;;5034592;28;20443;-76
2023/11/01 12:01:25;;;;;;;64.57;51.33;;;14.70;99.90;;;;;;5053330;28;20161;-76
2023/11/01 12:03:52;;;;;;;70.10;47.97;;;14.60;99.90;;;;;;5052491;28;20427;-76
2023/11/01 12:06:20;;;;;;;60.10;43.00;;;14.60;99.90;;;;;;5052990;28;20410;-76
2023/11/01 12:08:46;;;;;;;63.83;44.70;;;14.70;99.90;;;;;;5052692;28;20851;-76
2023/11/01 12:11:12;;;;;;;65.90;44.33;;;14.60;99.90;;;;;;5051185;28;20430;-76
2023/11/01 12:13:43;;;;;;;61.13;39.23;;;14.70;99.90;;;;;;5052359;28;20526;-76